sensor_id;sensor_type;location;lat;lon;timestamp;temperature;humidity
77985;DHT22;67177;47.240;-1.546;2023-04-29T00:01:15;15.30;77.20
77985;DHT22;67177;47.240;-1.546;2023-04-29T00:03:41;15.30;77.20
77985;DHT22;67177;47.240;-1.546;2023-04-29T00:06:07;15.30;77.20
77985;DHT22;67177;47.240;-1.546;2023-04-29T00:08:32;15.30;77.10
77985;DHT22;67177;47.240;-1.546;2023-04-29T00:10:58;15.30;77.10
77985;DHT22;67177;47.240;-1.546;2023-04-29T00:13:23;15.20;77.00
77985;DHT22;67177;47.240;-1.546;2023-04-29T00:15:50;15.20;76.90
77985;DHT22;67177;47.240;-1.546;2023-04-29T00:18:16;15.20;77.00
77985;DHT22;67177;47.240;-1.546;2023-04-29T00:20:41;15.20;76.90
77985;DHT22;67177;47.240;-1.546;2023-04-29T00:23:07;15.20;76.90
77985;DHT22;67177;47.240;-1.546;2023-04-29T00:25:33;15.20;76.80
77985;DHT22;67177;47.240;-1.546;2023-04-29T00:27:59;15.10;76.50
77985;DHT22;67177;47.240;-1.546;2023-04-29T00:30:27;15.10;76.40
77985;DHT22;67177;47.240;-1.546;2023-04-29T00:32:53;15.10;76.40
77985;DHT22;67177;47.240;-1.546;2023-04-29T00:35:20;15.00;76.40
77985;DHT22;67177;47.240;-1.546;2023-04-29T00:37:46;15.00;76.50
77985;DHT22;67177;47.240;-1.546;2023-04-29T00:40:12;14.90;76.40
77985;DHT22;67177;47.240;-1.546;2023-04-29T00:42:40;14.90;76.30
77985;DHT22;67177;47.240;-1.546;2023-04-29T00:45:07;14.80;76.30
77985;DHT22;67177;47.240;-1.546;2023-04-29T00:47:33;14.80;76.30
77985;DHT22;67177;47.240;-1.546;2023-04-29T00:49:59;14.70;76.40
77985;DHT22;67177;47.240;-1.546;2023-04-29T00:52:27;14.70;76.30
77985;DHT22;67177;47.240;-1.546;2023-04-29T00:54:54;14.70;76.30
77985;DHT22;67177;47.240;-1.546;2023-04-29T00:57:21;14.70;76.30
77985;DHT22;67177;47.240;-1.546;2023-04-29T00:59:47;14.70;76.20
77985;DHT22;67177;47.240;-1.546;2023-04-29T01:02:14;14.70;76.10
77985;DHT22;67177;47.240;-1.546;2023-04-29T01:04:41;14.70;75.90
77985;DHT22;67177;47.240;-1.546;2023-04-29T01:07:30;14.60;75.90
77985;DHT22;67177;47.240;-1.546;2023-04-29T01:17:40;14.50;76.20
77985;DHT22;67177;47.240;-1.546;2023-04-29T01:20:08;14.50;76.10
77985;DHT22;67177;47.240;-1.546;2023-04-29T01:22:34;14.40;76.10
77985;DHT22;67177;47.240;-1.546;2023-04-29T01:25:00;14.40;76.20
77985;DHT22;67177;47.240;-1.546;2023-04-29T01:27:33;14.40;76.20
77985;DHT22;67177;47.240;-1.546;2023-04-29T01:32:51;14.50;76.10
77985;DHT22;67177;47.240;-1.546;2023-04-29T01:40:52;14.40;76.20
77985;DHT22;67177;47.240;-1.546;2023-04-29T01:43:22;14.40;76.10
77985;DHT22;67177;47.240;-1.546;2023-04-29T01:45:52;14.40;76.10
77985;DHT22;67177;47.240;-1.546;2023-04-29T01:48:20;14.30;76.00
77985;DHT22;67177;47.240;-1.546;2023-04-29T01:50:46;14.20;76.40
77985;DHT22;67177;47.240;-1.546;2023-04-29T01:53:12;14.20;76.30
77985;DHT22;67177;47.240;-1.546;2023-04-29T01:55:37;14.20;76.40
77985;DHT22;67177;47.240;-1.546;2023-04-29T01:58:03;14.20;76.40
77985;DHT22;67177;47.240;-1.546;2023-04-29T02:00:29;14.20;76.30
77985;DHT22;67177;47.240;-1.546;2023-04-29T02:02:54;14.20;76.10
77985;DHT22;67177;47.240;-1.546;2023-04-29T02:05:20;14.20;76.20
77985;DHT22;67177;47.240;-1.546;2023-04-29T02:07:46;14.10;76.40
77985;DHT22;67177;47.240;-1.546;2023-04-29T02:10:12;14.20;76.40
77985;DHT22;67177;47.240;-1.546;2023-04-29T02:12:38;14.10;76.50
77985;DHT22;67177;47.240;-1.546;2023-04-29T02:15:04;14.20;76.50
77985;DHT22;67177;47.240;-1.546;2023-04-29T02:17:29;14.10;76.50
77985;DHT22;67177;47.240;-1.546;2023-04-29T02:19:57;14.10;76.40
77985;DHT22;67177;47.240;-1.546;2023-04-29T02:22:23;14.10;76.30
77985;DHT22;67177;47.240;-1.546;2023-04-29T02:24:48;14.00;76.30
77985;DHT22;67177;47.240;-1.546;2023-04-29T02:27:14;13.90;76.50
77985;DHT22;67177;47.240;-1.546;2023-04-29T02:29:40;13.80;76.50
77985;DHT22;67177;47.240;-1.546;2023-04-29T02:32:05;13.80;76.60
77985;DHT22;67177;47.240;-1.546;2023-04-29T02:34:31;13.70;76.70
77985;DHT22;67177;47.240;-1.546;2023-04-29T02:36:57;13.70;76.60
77985;DHT22;67177;47.240;-1.546;2023-04-29T02:39:23;13.70;76.50
77985;DHT22;67177;47.240;-1.546;2023-04-29T02:41:49;13.60;76.70
77985;DHT22;67177;47.240;-1.546;2023-04-29T02:44:14;13.60;76.90
77985;DHT22;67177;47.240;-1.546;2023-04-29T02:46:40;13.70;77.00
77985;DHT22;67177;47.240;-1.546;2023-04-29T02:49:10;13.70;76.80
77985;DHT22;67177;47.240;-1.546;2023-04-29T02:51:36;13.60;76.80
77985;DHT22;67177;47.240;-1.546;2023-04-29T02:54:02;13.60;76.90
77985;DHT22;67177;47.240;-1.546;2023-04-29T02:56:27;13.60;76.90
77985;DHT22;67177;47.240;-1.546;2023-04-29T02:58:54;13.60;77.00
77985;DHT22;67177;47.240;-1.546;2023-04-29T03:01:19;13.60;77.00
77985;DHT22;67177;47.240;-1.546;2023-04-29T03:03:46;13.60;77.00
77985;DHT22;67177;47.240;-1.546;2023-04-29T03:06:11;13.60;77.00
77985;DHT22;67177;47.240;-1.546;2023-04-29T03:08:37;13.60;77.00
77985;DHT22;67177;47.240;-1.546;2023-04-29T03:11:03;13.60;76.90
77985;DHT22;67177;47.240;-1.546;2023-04-29T03:13:28;13.50;76.90
77985;DHT22;67177;47.240;-1.546;2023-04-29T03:15:54;13.50;77.00
77985;DHT22;67177;47.240;-1.546;2023-04-29T03:18:23;13.50;77.10
77985;DHT22;67177;47.240;-1.546;2023-04-29T03:20:48;13.60;77.20
77985;DHT22;67177;47.240;-1.546;2023-04-29T03:23:14;13.60;77.20
77985;DHT22;67177;47.240;-1.546;2023-04-29T03:25:39;13.60;77.20
77985;DHT22;67177;47.240;-1.546;2023-04-29T03:28:06;13.60;77.30
77985;DHT22;67177;47.240;-1.546;2023-04-29T03:30:32;13.60;77.20
77985;DHT22;67177;47.240;-1.546;2023-04-29T03:32:57;13.50;77.30
77985;DHT22;67177;47.240;-1.546;2023-04-29T03:35:23;13.50;77.30
77985;DHT22;67177;47.240;-1.546;2023-04-29T03:37:49;13.60;77.30
77985;DHT22;67177;47.240;-1.546;2023-04-29T03:40:14;13.60;77.30
77985;DHT22;67177;47.240;-1.546;2023-04-29T03:42:40;13.60;77.20
77985;DHT22;67177;47.240;-1.546;2023-04-29T03:45:06;13.50;77.10
77985;DHT22;67177;47.240;-1.546;2023-04-29T03:47:32;13.50;77.30
77985;DHT22;67177;47.240;-1.546;2023-04-29T03:49:58;13.50;77.30
77985;DHT22;67177;47.240;-1.546;2023-04-29T03:52:23;13.50;77.40
77985;DHT22;67177;47.240;-1.546;2023-04-29T03:54:50;13.60;77.30
77985;DHT22;67177;47.240;-1.546;2023-04-29T03:57:15;13.60;77.30
77985;DHT22;67177;47.240;-1.546;2023-04-29T03:59:41;13.50;77.20
77985;DHT22;67177;47.240;-1.546;2023-04-29T04:02:07;13.50;77.20
77985;DHT22;67177;47.240;-1.546;2023-04-29T04:04:32;13.50;77.10
77985;DHT22;67177;47.240;-1.546;2023-04-29T04:06:58;13.50;77.00
77985;DHT22;67177;47.240;-1.546;2023-04-29T04:09:25;13.40;77.00
77985;DHT22;67177;47.240;-1.546;2023-04-29T04:11:50;13.40;77.10
77985;DHT22;67177;47.240;-1.546;2023-04-29T04:14:16;13.40;77.20
77985;DHT22;67177;47.240;-1.546;2023-04-29T04:16:43;13.30;77.20
77985;DHT22;67177;47.240;-1.546;2023-04-29T04:19:09;13.30;77.20
77985;DHT22;67177;47.240;-1.546;2023-04-29T04:21:34;13.40;77.40
77985;DHT22;67177;47.240;-1.546;2023-04-29T04:24:00;13.40;77.40
77985;DHT22;67177;47.240;-1.546;2023-04-29T04:26:26;13.40;77.30
77985;DHT22;67177;47.240;-1.546;2023-04-29T04:28:51;13.40;77.30
77985;DHT22;67177;47.240;-1.546;2023-04-29T04:31:17;13.40;77.40
77985;DHT22;67177;47.240;-1.546;2023-04-29T04:33:42;13.40;77.40
77985;DHT22;67177;47.240;-1.546;2023-04-29T04:36:08;13.40;77.30
77985;DHT22;67177;47.240;-1.546;2023-04-29T04:38:34;13.40;77.30
77985;DHT22;67177;47.240;-1.546;2023-04-29T04:40:59;13.40;77.20
77985;DHT22;67177;47.240;-1.546;2023-04-29T04:43:25;13.40;77.10
77985;DHT22;67177;47.240;-1.546;2023-04-29T04:45:51;13.40;77.10
77985;DHT22;67177;47.240;-1.546;2023-04-29T04:48:17;13.40;77.00
77985;DHT22;67177;47.240;-1.546;2023-04-29T04:50:43;13.30;76.90
77985;DHT22;67177;47.240;-1.546;2023-04-29T04:53:08;13.30;76.90
77985;DHT22;67177;47.240;-1.546;2023-04-29T04:55:34;13.30;77.00
77985;DHT22;67177;47.240;-1.546;2023-04-29T04:58:00;13.30;77.10
77985;DHT22;67177;47.240;-1.546;2023-04-29T05:00:25;13.30;77.30
77985;DHT22;67177;47.240;-1.546;2023-04-29T05:02:51;13.30;77.20
77985;DHT22;67177;47.240;-1.546;2023-04-29T05:05:16;13.40;77.20
77985;DHT22;67177;47.240;-1.546;2023-04-29T05:07:42;13.30;77.10
77985;DHT22;67177;47.240;-1.546;2023-04-29T05:10:08;13.30;77.00
77985;DHT22;67177;47.240;-1.546;2023-04-29T05:12:35;13.30;77.10
77985;DHT22;67177;47.240;-1.546;2023-04-29T05:15:01;13.30;77.00
77985;DHT22;67177;47.240;-1.546;2023-04-29T05:17:27;13.30;76.90
77985;DHT22;67177;47.240;-1.546;2023-04-29T05:19:52;13.30;77.20
77985;DHT22;67177;47.240;-1.546;2023-04-29T05:22:18;13.30;77.20
77985;DHT22;67177;47.240;-1.546;2023-04-29T05:24:44;13.30;77.10
77985;DHT22;67177;47.240;-1.546;2023-04-29T05:27:09;13.40;76.90
77985;DHT22;67177;47.240;-1.546;2023-04-29T05:29:35;13.40;76.90
77985;DHT22;67177;47.240;-1.546;2023-04-29T05:32:01;13.40;76.90
77985;DHT22;67177;47.240;-1.546;2023-04-29T05:34:26;13.50;76.90
77985;DHT22;67177;47.240;-1.546;2023-04-29T05:36:52;13.50;76.80
77985;DHT22;67177;47.240;-1.546;2023-04-29T05:39:18;13.50;76.50
77985;DHT22;67177;47.240;-1.546;2023-04-29T05:41:44;13.50;76.40
77985;DHT22;67177;47.240;-1.546;2023-04-29T05:44:09;13.50;76.50
77985;DHT22;67177;47.240;-1.546;2023-04-29T05:46:35;13.50;76.60
77985;DHT22;67177;47.240;-1.546;2023-04-29T05:49:01;13.50;76.60
77985;DHT22;67177;47.240;-1.546;2023-04-29T05:51:27;13.50;76.50
77985;DHT22;67177;47.240;-1.546;2023-04-29T05:53:53;13.60;76.50
77985;DHT22;67177;47.240;-1.546;2023-04-29T05:56:19;13.60;76.40
77985;DHT22;67177;47.240;-1.546;2023-04-29T05:58:45;13.60;76.50
77985;DHT22;67177;47.240;-1.546;2023-04-29T06:01:10;13.60;76.30
77985;DHT22;67177;47.240;-1.546;2023-04-29T06:03:36;13.60;76.20
77985;DHT22;67177;47.240;-1.546;2023-04-29T06:06:02;13.70;76.20
77985;DHT22;67177;47.240;-1.546;2023-04-29T06:08:28;13.70;76.10
77985;DHT22;67177;47.240;-1.546;2023-04-29T06:10:54;13.70;75.90
77985;DHT22;67177;47.240;-1.546;2023-04-29T06:13:20;13.80;75.70
77985;DHT22;67177;47.240;-1.546;2023-04-29T06:15:45;13.80;75.70
77985;DHT22;67177;47.240;-1.546;2023-04-29T06:18:11;13.80;75.50
77985;DHT22;67177;47.240;-1.546;2023-04-29T06:20:37;13.80;75.40
77985;DHT22;67177;47.240;-1.546;2023-04-29T06:23:02;13.70;75.10
77985;DHT22;67177;47.240;-1.546;2023-04-29T06:25:29;13.80;75.40
77985;DHT22;67177;47.240;-1.546;2023-04-29T06:27:58;13.80;75.40
77985;DHT22;67177;47.240;-1.546;2023-04-29T06:30:24;13.80;75.50
77985;DHT22;67177;47.240;-1.546;2023-04-29T06:32:50;13.90;75.40
77985;DHT22;67177;47.240;-1.546;2023-04-29T06:35:16;13.90;75.30
77985;DHT22;67177;47.240;-1.546;2023-04-29T06:37:41;13.90;75.40
77985;DHT22;67177;47.240;-1.546;2023-04-29T06:40:07;13.90;75.30
77985;DHT22;67177;47.240;-1.546;2023-04-29T06:42:33;13.90;75.00
77985;DHT22;67177;47.240;-1.546;2023-04-29T06:44:59;14.00;74.90
77985;DHT22;67177;47.240;-1.546;2023-04-29T06:47:25;14.00;75.00
77985;DHT22;67177;47.240;-1.546;2023-04-29T06:49:50;14.00;75.10
77985;DHT22;67177;47.240;-1.546;2023-04-29T06:52:17;14.10;75.00
77985;DHT22;67177;47.240;-1.546;2023-04-29T06:54:43;14.10;74.90
77985;DHT22;67177;47.240;-1.546;2023-04-29T06:57:10;14.20;74.90
77985;DHT22;67177;47.240;-1.546;2023-04-29T06:59:35;14.20;74.60
77985;DHT22;67177;47.240;-1.546;2023-04-29T07:02:01;14.20;74.70
77985;DHT22;67177;47.240;-1.546;2023-04-29T07:04:27;14.20;74.60
77985;DHT22;67177;47.240;-1.546;2023-04-29T07:06:52;14.20;74.30
77985;DHT22;67177;47.240;-1.546;2023-04-29T07:09:18;14.20;74.40
77985;DHT22;67177;47.240;-1.546;2023-04-29T07:11:44;14.20;74.40
77985;DHT22;67177;47.240;-1.546;2023-04-29T07:14:09;14.20;74.50
77985;DHT22;67177;47.240;-1.546;2023-04-29T07:16:35;14.20;74.30
77985;DHT22;67177;47.240;-1.546;2023-04-29T07:19:01;14.20;74.40
77985;DHT22;67177;47.240;-1.546;2023-04-29T07:21:27;14.20;74.40
77985;DHT22;67177;47.240;-1.546;2023-04-29T07:23:52;14.30;74.40
77985;DHT22;67177;47.240;-1.546;2023-04-29T07:26:19;14.30;74.30
77985;DHT22;67177;47.240;-1.546;2023-04-29T07:28:47;14.40;74.30
77985;DHT22;67177;47.240;-1.546;2023-04-29T07:31:13;14.40;74.10
77985;DHT22;67177;47.240;-1.546;2023-04-29T07:33:39;14.50;74.10
77985;DHT22;67177;47.240;-1.546;2023-04-29T07:36:05;14.50;74.00
77985;DHT22;67177;47.240;-1.546;2023-04-29T07:38:32;14.50;74.10
77985;DHT22;67177;47.240;-1.546;2023-04-29T07:40:58;14.60;73.90
77985;DHT22;67177;47.240;-1.546;2023-04-29T07:43:23;14.60;73.70
77985;DHT22;67177;47.240;-1.546;2023-04-29T07:45:49;14.60;73.80
77985;DHT22;67177;47.240;-1.546;2023-04-29T07:48:15;14.70;73.90
77985;DHT22;67177;47.240;-1.546;2023-04-29T07:50:41;14.70;73.80
77985;DHT22;67177;47.240;-1.546;2023-04-29T07:53:07;14.80;73.60
77985;DHT22;67177;47.240;-1.546;2023-04-29T07:55:33;14.80;73.40
77985;DHT22;67177;47.240;-1.546;2023-04-29T07:57:58;14.90;73.30
77985;DHT22;67177;47.240;-1.546;2023-04-29T08:00:24;14.80;73.10
77985;DHT22;67177;47.240;-1.546;2023-04-29T08:02:55;14.90;73.10
77985;DHT22;67177;47.240;-1.546;2023-04-29T08:05:22;14.90;73.10
77985;DHT22;67177;47.240;-1.546;2023-04-29T08:07:48;15.00;72.70
77985;DHT22;67177;47.240;-1.546;2023-04-29T08:10:15;15.00;72.40
77985;DHT22;67177;47.240;-1.546;2023-04-29T08:12:44;15.00;72.50
77985;DHT22;67177;47.240;-1.546;2023-04-29T08:15:09;14.90;72.30
77985;DHT22;67177;47.240;-1.546;2023-04-29T08:17:35;14.90;72.30
77985;DHT22;67177;47.240;-1.546;2023-04-29T08:20:01;14.90;72.30
77985;DHT22;67177;47.240;-1.546;2023-04-29T08:22:27;14.90;72.10
77985;DHT22;67177;47.240;-1.546;2023-04-29T08:24:52;15.00;72.20
77985;DHT22;67177;47.240;-1.546;2023-04-29T08:27:18;14.90;72.00
77985;DHT22;67177;47.240;-1.546;2023-04-29T08:29:45;14.90;72.00
77985;DHT22;67177;47.240;-1.546;2023-04-29T08:32:11;14.80;72.00
77985;DHT22;67177;47.240;-1.546;2023-04-29T08:34:37;14.80;72.00
77985;DHT22;67177;47.240;-1.546;2023-04-29T08:37:03;14.80;72.30
77985;DHT22;67177;47.240;-1.546;2023-04-29T08:39:29;14.80;72.20
77985;DHT22;67177;47.240;-1.546;2023-04-29T08:41:58;14.80;72.20
77985;DHT22;67177;47.240;-1.546;2023-04-29T08:44:27;14.80;72.20
77985;DHT22;67177;47.240;-1.546;2023-04-29T08:46:53;14.80;72.20
77985;DHT22;67177;47.240;-1.546;2023-04-29T08:49:20;14.80;72.20
77985;DHT22;67177;47.240;-1.546;2023-04-29T08:51:48;14.80;72.20
77985;DHT22;67177;47.240;-1.546;2023-04-29T08:54:14;14.90;72.10
77985;DHT22;67177;47.240;-1.546;2023-04-29T08:56:44;14.90;71.90
77985;DHT22;67177;47.240;-1.546;2023-04-29T08:59:11;14.90;72.00
77985;DHT22;67177;47.240;-1.546;2023-04-29T09:01:39;14.90;71.70
77985;DHT22;67177;47.240;-1.546;2023-04-29T09:06:50;14.80;71.80
77985;DHT22;67177;47.240;-1.546;2023-04-29T09:09:17;14.80;71.60
77985;DHT22;67177;47.240;-1.546;2023-04-29T09:11:43;14.90;71.70
77985;DHT22;67177;47.240;-1.546;2023-04-29T09:14:09;14.90;71.60
77985;DHT22;67177;47.240;-1.546;2023-04-29T09:16:34;14.90;71.50
77985;DHT22;67177;47.240;-1.546;2023-04-29T09:19:02;15.10;71.60
77985;DHT22;67177;47.240;-1.546;2023-04-29T09:21:28;15.20;71.00
77985;DHT22;67177;47.240;-1.546;2023-04-29T09:23:59;15.30;70.90
77985;DHT22;67177;47.240;-1.546;2023-04-29T09:26:25;15.40;70.60
77985;DHT22;67177;47.240;-1.546;2023-04-29T09:29:08;15.50;70.20
77985;DHT22;67177;47.240;-1.546;2023-04-29T09:31:39;15.50;70.20
77985;DHT22;67177;47.240;-1.546;2023-04-29T09:34:06;15.70;70.10
77985;DHT22;67177;47.240;-1.546;2023-04-29T09:39:38;16.10;70.00
77985;DHT22;67177;47.240;-1.546;2023-04-29T09:42:04;16.10;69.70
77985;DHT22;67177;47.240;-1.546;2023-04-29T09:44:32;16.30;69.60
77985;DHT22;67177;47.240;-1.546;2023-04-29T09:47:07;16.40;68.90
77985;DHT22;67177;47.240;-1.546;2023-04-29T09:49:38;16.40;69.00
77985;DHT22;67177;47.240;-1.546;2023-04-29T09:52:13;16.50;69.10
77985;DHT22;67177;47.240;-1.546;2023-04-29T09:54:42;16.60;68.70
77985;DHT22;67177;47.240;-1.546;2023-04-29T09:57:10;16.70;68.50
77985;DHT22;67177;47.240;-1.546;2023-04-29T09:59:38;16.80;68.10
77985;DHT22;67177;47.240;-1.546;2023-04-29T10:02:09;16.90;67.80
77985;DHT22;67177;47.240;-1.546;2023-04-29T10:04:40;17.00;67.70
77985;DHT22;67177;47.240;-1.546;2023-04-29T10:07:07;17.10;67.20
77985;DHT22;67177;47.240;-1.546;2023-04-29T10:09:36;17.30;67.20
77985;DHT22;67177;47.240;-1.546;2023-04-29T10:12:06;17.60;66.60
77985;DHT22;67177;47.240;-1.546;2023-04-29T10:14:38;17.80;66.30
77985;DHT22;67177;47.240;-1.546;2023-04-29T10:17:10;17.90;66.20
77985;DHT22;67177;47.240;-1.546;2023-04-29T10:22:15;18.10;65.50
77985;DHT22;67177;47.240;-1.546;2023-04-29T10:24:41;18.20;65.40
77985;DHT22;67177;47.240;-1.546;2023-04-29T10:27:09;18.30;65.00
77985;DHT22;67177;47.240;-1.546;2023-04-29T10:29:38;18.30;64.70
77985;DHT22;67177;47.240;-1.546;2023-04-29T10:32:09;18.20;64.80
77985;DHT22;67177;47.240;-1.546;2023-04-29T10:34:37;18.10;65.20
77985;DHT22;67177;47.240;-1.546;2023-04-29T10:37:09;18.00;65.20
77985;DHT22;67177;47.240;-1.546;2023-04-29T10:39:44;17.90;65.20
77985;DHT22;67177;47.240;-1.546;2023-04-29T10:42:33;17.80;65.50
77985;DHT22;67177;47.240;-1.546;2023-04-29T10:45:21;17.90;65.60
77985;DHT22;67177;47.240;-1.546;2023-04-29T10:53:17;18.10;64.90
77985;DHT22;67177;47.240;-1.546;2023-04-29T10:55:47;18.00;64.50
77985;DHT22;67177;47.240;-1.546;2023-04-29T11:00:58;17.70;64.40
77985;DHT22;67177;47.240;-1.546;2023-04-29T11:06:11;17.40;65.00
77985;DHT22;67177;47.240;-1.546;2023-04-29T11:08:37;17.40;64.90
77985;DHT22;67177;47.240;-1.546;2023-04-29T11:11:06;17.50;64.70
77985;DHT22;67177;47.240;-1.546;2023-04-29T11:13:39;17.40;64.80
77985;DHT22;67177;47.240;-1.546;2023-04-29T11:16:10;17.40;65.10
77985;DHT22;67177;47.240;-1.546;2023-04-29T11:21:33;17.10;65.60
77985;DHT22;67177;47.240;-1.546;2023-04-29T11:23:59;17.10;65.40
77985;DHT22;67177;47.240;-1.546;2023-04-29T11:26:25;17.20;65.20
77985;DHT22;67177;47.240;-1.546;2023-04-29T11:28:51;17.10;65.20
77985;DHT22;67177;47.240;-1.546;2023-04-29T11:31:18;17.10;65.20
77985;DHT22;67177;47.240;-1.546;2023-04-29T11:33:45;17.30;65.10
77985;DHT22;67177;47.240;-1.546;2023-04-29T11:36:11;17.40;65.10
77985;DHT22;67177;47.240;-1.546;2023-04-29T11:38:39;17.60;64.90
77985;DHT22;67177;47.240;-1.546;2023-04-29T11:41:05;17.90;64.40
77985;DHT22;67177;47.240;-1.546;2023-04-29T11:43:31;18.10;64.20
77985;DHT22;67177;47.240;-1.546;2023-04-29T11:45:57;18.20;64.20
77985;DHT22;67177;47.240;-1.546;2023-04-29T11:48:24;18.20;64.20
77985;DHT22;67177;47.240;-1.546;2023-04-29T11:50:52;18.20;64.20
77985;DHT22;67177;47.240;-1.546;2023-04-29T11:53:20;18.30;63.90
77985;DHT22;67177;47.240;-1.546;2023-04-29T11:55:46;18.50;63.70
77985;DHT22;67177;47.240;-1.546;2023-04-29T11:58:14;18.60;63.30
77985;DHT22;67177;47.240;-1.546;2023-04-29T12:00:43;18.70;63.20
77985;DHT22;67177;47.240;-1.546;2023-04-29T12:05:39;18.80;63.10
77985;DHT22;67177;47.240;-1.546;2023-04-29T12:08:08;18.90;63.00
77985;DHT22;67177;47.240;-1.546;2023-04-29T12:10:35;18.90;63.10
77985;DHT22;67177;47.240;-1.546;2023-04-29T12:13:02;19.00;62.70
77985;DHT22;67177;47.240;-1.546;2023-04-29T12:15:29;19.10;62.50
77985;DHT22;67177;47.240;-1.546;2023-04-29T12:17:54;19.20;61.30
77985;DHT22;67177;47.240;-1.546;2023-04-29T12:20:20;19.20;61.20
77985;DHT22;67177;47.240;-1.546;2023-04-29T12:22:46;19.20;61.50
77985;DHT22;67177;47.240;-1.546;2023-04-29T12:25:12;19.10;62.10
77985;DHT22;67177;47.240;-1.546;2023-04-29T12:27:40;18.90;62.20
77985;DHT22;67177;47.240;-1.546;2023-04-29T12:30:08;18.80;62.50
77985;DHT22;67177;47.240;-1.546;2023-04-29T12:32:34;18.80;62.70
77985;DHT22;67177;47.240;-1.546;2023-04-29T12:35:01;18.80;62.60
77985;DHT22;67177;47.240;-1.546;2023-04-29T12:37:27;18.90;62.10
77985;DHT22;67177;47.240;-1.546;2023-04-29T12:39:56;19.10;62.10
77985;DHT22;67177;47.240;-1.546;2023-04-29T12:42:21;19.20;61.90
77985;DHT22;67177;47.240;-1.546;2023-04-29T12:44:47;19.20;61.60
77985;DHT22;67177;47.240;-1.546;2023-04-29T12:47:13;19.20;61.80
77985;DHT22;67177;47.240;-1.546;2023-04-29T12:49:44;19.30;61.90
77985;DHT22;67177;47.240;-1.546;2023-04-29T12:52:10;19.30;62.00
77985;DHT22;67177;47.240;-1.546;2023-04-29T12:54:37;19.40;62.00
77985;DHT22;67177;47.240;-1.546;2023-04-29T12:57:02;19.40;61.80
77985;DHT22;67177;47.240;-1.546;2023-04-29T12:59:28;19.50;62.00
77985;DHT22;67177;47.240;-1.546;2023-04-29T13:01:54;19.40;61.50
77985;DHT22;67177;47.240;-1.546;2023-04-29T13:04:20;19.30;61.60
77985;DHT22;67177;47.240;-1.546;2023-04-29T13:06:45;19.20;61.70
77985;DHT22;67177;47.240;-1.546;2023-04-29T13:09:11;19.10;61.90
77985;DHT22;67177;47.240;-1.546;2023-04-29T13:11:38;19.10;62.00
77985;DHT22;67177;47.240;-1.546;2023-04-29T13:14:06;19.20;61.90
77985;DHT22;67177;47.240;-1.546;2023-04-29T13:16:32;19.40;61.70
77985;DHT22;67177;47.240;-1.546;2023-04-29T13:18:59;19.50;61.40
77985;DHT22;67177;47.240;-1.546;2023-04-29T13:21:25;19.60;61.40
77985;DHT22;67177;47.240;-1.546;2023-04-29T13:23:52;19.60;61.40
77985;DHT22;67177;47.240;-1.546;2023-04-29T13:26:18;19.80;61.20
77985;DHT22;67177;47.240;-1.546;2023-04-29T13:28:43;19.90;61.10
77985;DHT22;67177;47.240;-1.546;2023-04-29T13:31:09;20.10;60.80
77985;DHT22;67177;47.240;-1.546;2023-04-29T13:33:35;20.20;60.60
77985;DHT22;67177;47.240;-1.546;2023-04-29T13:36:01;20.30;60.20
77985;DHT22;67177;47.240;-1.546;2023-04-29T13:38:27;20.30;60.20
77985;DHT22;67177;47.240;-1.546;2023-04-29T13:40:52;20.40;60.00
77985;DHT22;67177;47.240;-1.546;2023-04-29T13:43:18;20.40;59.80
77985;DHT22;67177;47.240;-1.546;2023-04-29T13:45:44;20.30;60.00
77985;DHT22;67177;47.240;-1.546;2023-04-29T13:48:09;20.20;59.90
77985;DHT22;67177;47.240;-1.546;2023-04-29T13:50:35;20.20;59.80
77985;DHT22;67177;47.240;-1.546;2023-04-29T13:53:01;20.10;59.90
77985;DHT22;67177;47.240;-1.546;2023-04-29T13:55:27;20.10;59.70
77985;DHT22;67177;47.240;-1.546;2023-04-29T13:57:54;20.00;59.70
77985;DHT22;67177;47.240;-1.546;2023-04-29T14:00:19;19.80;59.90
77985;DHT22;67177;47.240;-1.546;2023-04-29T14:02:45;19.70;60.00
77985;DHT22;67177;47.240;-1.546;2023-04-29T14:05:12;19.60;60.20
77985;DHT22;67177;47.240;-1.546;2023-04-29T14:07:37;19.30;60.50
77985;DHT22;67177;47.240;-1.546;2023-04-29T14:10:03;19.10;60.80
77985;DHT22;67177;47.240;-1.546;2023-04-29T14:12:30;19.00;61.10
77985;DHT22;67177;47.240;-1.546;2023-04-29T14:14:56;19.00;61.10
77985;DHT22;67177;47.240;-1.546;2023-04-29T14:17:22;19.00;61.20
77985;DHT22;67177;47.240;-1.546;2023-04-29T14:19:47;18.90;61.40
77985;DHT22;67177;47.240;-1.546;2023-04-29T14:22:13;18.80;61.40
77985;DHT22;67177;47.240;-1.546;2023-04-29T14:24:39;18.80;61.10
77985;DHT22;67177;47.240;-1.546;2023-04-29T14:27:04;18.80;61.30
77985;DHT22;67177;47.240;-1.546;2023-04-29T14:29:31;18.80;61.40
77985;DHT22;67177;47.240;-1.546;2023-04-29T14:31:56;18.90;61.50
77985;DHT22;67177;47.240;-1.546;2023-04-29T14:34:22;19.00;61.50
77985;DHT22;67177;47.240;-1.546;2023-04-29T14:36:47;19.20;61.40
77985;DHT22;67177;47.240;-1.546;2023-04-29T14:39:13;19.40;61.30
77985;DHT22;67177;47.240;-1.546;2023-04-29T14:41:39;19.50;61.20
77985;DHT22;67177;47.240;-1.546;2023-04-29T14:44:04;19.60;61.30
77985;DHT22;67177;47.240;-1.546;2023-04-29T14:46:30;19.70;61.20
77985;DHT22;67177;47.240;-1.546;2023-04-29T14:48:56;19.90;61.10
77985;DHT22;67177;47.240;-1.546;2023-04-29T14:51:22;20.00;61.00
77985;DHT22;67177;47.240;-1.546;2023-04-29T14:53:47;20.10;60.80
77985;DHT22;67177;47.240;-1.546;2023-04-29T14:56:15;20.20;60.50
77985;DHT22;67177;47.240;-1.546;2023-04-29T14:58:41;20.20;60.40
77985;DHT22;67177;47.240;-1.546;2023-04-29T15:01:07;20.00;60.70
77985;DHT22;67177;47.240;-1.546;2023-04-29T15:03:33;19.80;60.80
77985;DHT22;67177;47.240;-1.546;2023-04-29T15:06:00;19.60;60.90
77985;DHT22;67177;47.240;-1.546;2023-04-29T15:08:28;19.40;61.20
77985;DHT22;67177;47.240;-1.546;2023-04-29T15:10:54;19.30;61.40
77985;DHT22;67177;47.240;-1.546;2023-04-29T15:13:19;19.20;61.50
77985;DHT22;67177;47.240;-1.546;2023-04-29T15:15:45;19.20;61.60
77985;DHT22;67177;47.240;-1.546;2023-04-29T15:18:11;19.10;61.50
77985;DHT22;67177;47.240;-1.546;2023-04-29T15:20:37;19.00;61.40
77985;DHT22;67177;47.240;-1.546;2023-04-29T15:23:03;19.00;61.50
77985;DHT22;67177;47.240;-1.546;2023-04-29T15:25:30;19.00;61.70
77985;DHT22;67177;47.240;-1.546;2023-04-29T15:27:57;19.00;61.80
77985;DHT22;67177;47.240;-1.546;2023-04-29T15:30:24;19.00;61.70
77985;DHT22;67177;47.240;-1.546;2023-04-29T15:32:51;19.10;61.70
77985;DHT22;67177;47.240;-1.546;2023-04-29T15:35:16;19.10;61.70
77985;DHT22;67177;47.240;-1.546;2023-04-29T15:37:42;19.20;61.70
77985;DHT22;67177;47.240;-1.546;2023-04-29T15:40:08;19.10;61.70
77985;DHT22;67177;47.240;-1.546;2023-04-29T15:42:34;19.20;61.80
77985;DHT22;67177;47.240;-1.546;2023-04-29T15:44:59;19.40;61.50
77985;DHT22;67177;47.240;-1.546;2023-04-29T15:47:26;19.50;61.40
77985;DHT22;67177;47.240;-1.546;2023-04-29T15:49:52;19.60;61.10
77985;DHT22;67177;47.240;-1.546;2023-04-29T15:52:21;19.70;61.00